Time;durP1;ratioP1;P1;durP2;ratioP2;P2;SDS_P1;SDS_P2;PMS_P1;PMS_P2;Temp;Humidity;BMP_temperature;BMP_pressure;BME280_temperature;BME280_humidity;BME280_pressure;Samples;Min_cycle;Max_cycle;Signal;HPM_P1;HPM_P2
2022/05/18 00:02:26;;;;;;;14.77;13.15;;;19.50;99.90;;;;;;4992228;28;20403;-54
2022/05/18 00:04:51;;;;;;;15.50;13.00;;;19.60;99.90;;;;;;4992145;28;20061;-55
2022/05/18 00:07:17;;;;;;;14.10;12.80;;;19.60;99.90;;;;;;4994340;28;20030;-54
2022/05/18 00:09:42;;;;;;;14.23;12.82;;;19.60;99.90;;;;;;4992637;28;20046;-58
2022/05/18 00:12:09;;;;;;;13.68;12.25;;;19.60;99.90;;;;;;4991037;28;20130;-56
2022/05/18 00:14:35;;;;;;;13.80;12.50;;;19.60;99.90;;;;;;4991814;28;20037;-58
2022/05/18 00:17:03;;;;;;;14.00;12.50;;;19.50;99.90;;;;;;4994004;28;20069;-58
2022/05/18 00:19:30;;;;;;;14.07;12.77;;;19.40;99.90;;;;;;4993489;28;20033;-58
2022/05/18 00:21:56;;;;;;;12.88;11.50;;;19.50;99.90;;;;;;4991707;28;20049;-58
2022/05/18 00:24:21;;;;;;;13.55;12.25;;;19.60;99.90;;;;;;4992480;28;20494;-58
2022/05/18 00:26:47;;;;;;;12.80;11.60;;;19.60;99.90;;;;;;4992511;28;20039;-58
2022/05/18 00:29:13;;;;;;;13.05;11.82;;;19.60;99.90;;;;;;4992781;28;20079;-56
2022/05/18 00:31:40;;;;;;;13.60;12.30;;;19.60;99.90;;;;;;4993922;28;20042;-55
2022/05/18 00:34:06;;;;;;;13.85;11.90;;;19.60;99.90;;;;;;4994140;28;20386;-57
2022/05/18 00:36:31;;;;;;;12.85;11.55;;;19.50;99.90;;;;;;4992178;28;20049;-59
2022/05/18 00:38:57;;;;;;;13.13;11.75;;;19.50;99.90;;;;;;4992962;28;20029;-59
2022/05/18 00:41:23;;;;;;;12.32;11.13;;;19.50;99.90;;;;;;4993034;28;20456;-53
2022/05/18 00:43:51;;;;;;;13.25;11.88;;;19.50;99.90;;;;;;4993109;28;20031;-54
2022/05/18 00:46:17;;;;;;;12.60;11.30;;;19.50;99.90;;;;;;4992183;28;20533;-56
2022/05/18 00:48:43;;;;;;;12.43;11.23;;;19.50;99.90;;;;;;4993399;28;20034;-57
2022/05/18 00:51:19;;;;;;;13.40;12.10;;;19.50;99.90;;;;;;4991988;28;20088;-59
2022/05/18 00:53:59;;;;;;;14.38;12.88;;;19.50;99.90;;;;;;4991431;28;20499;-56
2022/05/18 00:56:35;;;;;;;13.73;11.80;;;19.30;99.90;;;;;;4988164;28;20035;-59
2022/05/18 00:59:13;;;;;;;14.10;12.75;;;19.10;99.90;;;;;;4992950;28;20431;-56
2022/05/18 01:01:39;;;;;;;14.52;13.15;;;19.00;99.90;;;;;;4992745;28;20486;-56
2022/05/18 01:04:07;;;;;;;16.63;13.73;;;19.00;99.90;;;;;;4992631;28;20121;-59
2022/05/18 01:06:40;;;;;;;13.27;12.00;;;19.10;99.90;;;;;;4991502;28;20026;-58
2022/05/18 01:09:20;;;;;;;13.73;12.45;;;19.10;99.90;;;;;;4991670;28;20110;-59
2022/05/18 01:11:45;;;;;;;13.80;12.40;;;19.20;99.90;;;;;;4972843;28;20035;-56
2022/05/18 01:14:17;;;;;;;14.60;13.30;;;19.20;99.90;;;;;;4974644;28;20467;-57
2022/05/18 01:16:43;;;;;;;16.73;14.32;;;19.20;99.90;;;;;;4992631;28;20038;-58
2022/05/18 01:19:31;;;;;;;16.58;14.68;;;19.10;99.90;;;;;;4992791;28;20506;-58
2022/05/18 01:22:10;;;;;;;17.40;15.65;;;19.10;99.90;;;;;;4992464;28;20066;-55
2022/05/18 01:24:54;;;;;;;17.95;16.15;;;19.20;99.90;;;;;;4995811;28;20026;-59
2022/05/18 01:27:20;;;;;;;18.83;16.97;;;19.10;99.90;;;;;;4995598;28;20042;-58
2022/05/18 01:29:45;;;;;;;20.42;17.83;;;19.10;99.90;;;;;;4996051;28;20266;-56
2022/05/18 01:32:16;;;;;;;20.13;18.15;;;19.00;99.90;;;;;;4994832;28;20045;-58
2022/05/18 01:34:42;;;;;;;19.83;17.95;;;18.80;99.90;;;;;;4995388;28;20048;-56
2022/05/18 01:37:10;;;;;;;21.48;19.27;;;18.80;99.90;;;;;;4996394;28;20476;-56
2022/05/18 01:39:58;;;;;;;21.98;19.85;;;18.80;99.90;;;;;;4995988;28;20534;-56
2022/05/18 01:42:48;;;;;;;20.65;18.65;;;18.80;99.90;;;;;;4995182;28;20374;-58
2022/05/18 01:45:14;;;;;;;20.23;18.23;;;18.90;99.90;;;;;;4995461;28;20558;-57
2022/05/18 01:47:40;;;;;;;19.85;17.92;;;18.90;99.90;;;;;;4997374;28;20068;-58
2022/05/18 01:50:14;;;;;;;20.73;18.80;;;19.00;99.90;;;;;;4997426;28;20030;-60
2022/05/18 01:52:39;;;;;;;19.55;17.63;;;19.10;99.90;;;;;;4995928;28;20033;-56
2022/05/18 01:55:06;;;;;;;19.80;17.52;;;19.10;99.90;;;;;;4996000;28;20042;-56
2022/05/18 01:57:34;;;;;;;23.48;18.27;;;19.20;99.90;;;;;;4995546;28;20030;-59
2022/05/18 01:59:59;;;;;;;19.98;17.55;;;19.20;99.90;;;;;;4995960;28;20035;-57
2022/05/18 02:02:25;;;;;;;20.23;18.30;;;19.30;99.90;;;;;;4996164;28;20062;-59
2022/05/18 02:04:50;;;;;;;20.00;17.92;;;19.30;99.90;;;;;;4995604;28;20382;-55
2022/05/18 02:07:17;;;;;;;19.27;17.45;;;19.30;99.90;;;;;;4993962;28;20053;-56
2022/05/18 02:09:43;;;;;;;18.80;17.08;;;19.30;99.90;;;;;;4995313;28;20401;-59
2022/05/18 02:12:12;;;;;;;18.38;16.67;;;19.30;99.90;;;;;;4995924;28;20061;-56
2022/05/18 02:14:37;;;;;;;20.20;18.30;;;19.20;99.90;;;;;;4995618;28;20136;-57
2022/05/18 02:17:03;;;;;;;19.63;17.60;;;19.20;99.90;;;;;;4996072;28;20573;-55
2022/05/18 02:19:29;;;;;;;19.05;17.08;;;19.30;99.90;;;;;;4995442;28;20034;-57
2022/05/18 02:21:54;;;;;;;20.38;18.58;;;19.20;99.90;;;;;;4996093;28;20045;-54
2022/05/18 02:24:20;;;;;;;18.92;17.23;;;19.20;99.90;;;;;;4994297;28;20069;-61
2022/05/18 02:26:45;;;;;;;18.75;16.90;;;19.10;99.90;;;;;;4993106;28;20060;-56
2022/05/18 02:29:11;;;;;;;19.50;17.50;;;19.10;99.90;;;;;;4993649;28;20039;-59
2022/05/18 02:31:37;;;;;;;19.88;18.08;;;19.10;99.90;;;;;;4994295;28;20114;-57
2022/05/18 02:34:03;;;;;;;18.85;16.83;;;19.20;99.90;;;;;;4994858;28;20471;-57
2022/05/18 02:36:29;;;;;;;19.30;16.98;;;19.20;99.90;;;;;;4991905;28;20034;-54
2022/05/18 02:38:54;;;;;;;18.45;16.80;;;19.20;99.90;;;;;;4993221;28;20037;-59
2022/05/18 02:41:20;;;;;;;19.38;17.63;;;19.20;99.90;;;;;;4994665;28;20034;-59
2022/05/18 02:43:46;;;;;;;19.65;17.85;;;19.20;99.90;;;;;;4993606;28;20546;-58
2022/05/18 02:46:15;;;;;;;18.90;17.10;;;19.10;99.90;;;;;;4996145;28;20499;-58
2022/05/18 02:48:41;;;;;;;21.13;19.10;;;19.10;99.90;;;;;;4995733;28;20058;-60
2022/05/18 02:51:08;;;;;;;21.17;19.27;;;19.00;99.90;;;;;;4995545;28;20129;-56
2022/05/18 02:53:34;;;;;;;21.13;19.05;;;18.90;99.90;;;;;;4977724;28;20403;-58
2022/05/18 02:56:06;;;;;;;21.95;19.95;;;18.90;99.90;;;;;;4994379;28;20031;-56
2022/05/18 02:58:36;;;;;;;19.98;18.17;;;18.80;99.90;;;;;;4994666;28;20161;-57
2022/05/18 03:01:11;;;;;;;21.25;19.00;;;18.80;99.90;;;;;;4993252;28;20089;-58
2022/05/18 03:03:38;;;;;;;19.65;17.75;;;18.90;99.90;;;;;;4993488;28;20084;-61
2022/05/18 03:06:06;;;;;;;20.67;18.67;;;18.90;99.90;;;;;;4994746;28;20030;-59
2022/05/18 03:08:34;;;;;;;20.63;18.52;;;19.00;99.90;;;;;;4994144;28;20041;-60
2022/05/18 03:11:00;;;;;;;20.60;18.73;;;19.00;99.90;;;;;;4994436;28;20160;-60
2022/05/18 03:13:26;;;;;;;22.15;19.80;;;19.10;99.90;;;;;;4994252;28;20034;-59
2022/05/18 03:15:52;;;;;;;20.92;19.02;;;19.10;99.90;;;;;;4993558;28;20026;-59
2022/05/18 03:18:17;;;;;;;22.23;19.95;;;19.10;99.90;;;;;;4994511;28;20038;-59
2022/05/18 03:23:33;;;;;;;;;;;18.80;99.90;;;;;;4994945;28;20034;-59
2022/05/18 03:26:00;;;;;;;20.25;18.20;;;18.70;99.90;;;;;;4992817;28;19913;-58
2022/05/18 03:28:25;;;;;;;21.33;19.05;;;18.70;99.90;;;;;;4994242;28;20030;-58
2022/05/18 03:30:51;;;;;;;22.70;20.23;;;18.80;99.90;;;;;;4992805;28;20092;-58
2022/05/18 03:33:17;;;;;;;20.00;17.92;;;18.70;99.90;;;;;;4994250;28;20034;-59
2022/05/18 03:35:42;;;;;;;20.75;18.63;;;18.80;99.90;;;;;;4992954;28;20038;-60
2022/05/18 03:38:08;;;;;;;18.95;17.15;;;18.70;99.90;;;;;;4993547;28;20053;-59
2022/05/18 03:40:36;;;;;;;20.95;18.35;;;18.70;99.90;;;;;;4993842;28;20053;-57
2022/05/18 03:43:03;;;;;;;19.92;17.83;;;18.70;99.90;;;;;;4995137;28;20465;-57
2022/05/18 03:45:29;;;;;;;19.25;17.40;;;18.70;99.90;;;;;;4995149;28;20128;-55
2022/05/18 03:47:55;;;;;;;18.67;16.73;;;18.70;99.90;;;;;;4992913;28;20038;-59
2022/05/18 03:50:20;;;;;;;19.80;18.02;;;18.80;99.90;;;;;;4992741;28;20057;-60
2022/05/18 03:52:46;;;;;;;19.30;17.38;;;18.70;99.90;;;;;;4993526;28;20022;-59
2022/05/18 03:55:12;;;;;;;20.25;18.13;;;18.80;99.90;;;;;;4991820;28;20026;-58
2022/05/18 03:57:37;;;;;;;26.63;17.58;;;18.80;99.90;;;;;;4993336;28;20030;-55
2022/05/18 04:00:05;;;;;;;20.40;17.73;;;18.80;99.90;;;;;;4992397;28;20030;-58
2022/05/18 04:02:30;;;;;;;23.92;18.85;;;18.80;99.90;;;;;;4993069;28;20091;-59
2022/05/18 04:04:56;;;;;;;20.88;18.63;;;18.80;99.90;;;;;;4975194;28;20073;-58
2022/05/18 04:07:21;;;;;;;22.13;19.63;;;18.80;99.90;;;;;;4991031;28;20510;-56
2022/05/18 04:09:47;;;;;;;22.27;19.38;;;18.80;99.90;;;;;;4991466;28;20144;-58
2022/05/18 04:12:13;;;;;;;20.58;18.52;;;18.70;99.90;;;;;;4993192;28;20446;-58
2022/05/18 04:14:39;;;;;;;22.02;18.73;;;18.70;99.90;;;;;;4991665;28;20034;-59
2022/05/18 04:17:05;;;;;;;23.85;21.42;;;18.70;99.90;;;;;;4993071;28;20125;-56
2022/05/18 04:19:30;;;;;;;22.08;19.77;;;18.70;99.90;;;;;;4992896;28;20042;-57
2022/05/18 04:21:56;;;;;;;22.00;19.98;;;18.70;99.90;;;;;;4991836;28;20398;-57
2022/05/18 04:24:22;;;;;;;22.08;19.92;;;18.60;99.90;;;;;;4992598;28;20038;-60
2022/05/18 04:26:47;;;;;;;21.48;19.48;;;18.60;99.90;;;;;;4993040;28;20041;-61
2022/05/18 04:29:13;;;;;;;23.75;20.98;;;18.60;99.90;;;;;;4992627;28;20496;-57
2022/05/18 04:31:38;;;;;;;21.83;19.75;;;18.70;99.90;;;;;;4993559;28;20031;-54
2022/05/18 04:34:04;;;;;;;22.88;20.63;;;18.70;99.90;;;;;;4993967;28;20030;-56
2022/05/18 04:36:30;;;;;;;21.30;19.02;;;18.60;99.90;;;;;;4993153;28;20023;-56
2022/05/18 04:38:55;;;;;;;23.40;20.23;;;18.70;99.90;;;;;;4992563;28;20022;-59
2022/05/18 04:41:21;;;;;;;21.70;19.15;;;18.80;99.90;;;;;;4992834;28;20430;-58
2022/05/18 04:43:46;;;;;;;22.30;20.15;;;19.00;99.90;;;;;;4991921;28;20042;-57
2022/05/18 04:46:12;;;;;;;27.15;20.88;;;19.10;99.90;;;;;;4991194;28;20042;-62
2022/05/18 04:48:38;;;;;;;28.50;19.75;;;19.20;99.90;;;;;;4992733;28;20058;-58
2022/05/18 04:51:05;;;;;;;22.85;20.45;;;19.30;99.90;;;;;;4993151;28;20042;-57
2022/05/18 04:53:32;;;;;;;40.70;21.25;;;19.40;99.90;;;;;;4993340;28;20031;-59
2022/05/18 04:55:57;;;;;;;35.40;20.83;;;19.50;99.90;;;;;;4992799;28;20035;-57
2022/05/18 04:58:23;;;;;;;24.52;20.27;;;19.60;99.90;;;;;;4994379;28;20034;-58
2022/05/18 05:00:59;;;;;;;22.48;20.17;;;19.70;99.90;;;;;;4996456;28;20483;-59
2022/05/18 05:03:25;;;;;;;29.75;19.88;;;19.70;99.90;;;;;;4997096;28;20038;-58
2022/05/18 05:05:51;;;;;;;21.80;19.42;;;19.60;99.90;;;;;;4995428;28;20070;-57
2022/05/18 05:08:17;;;;;;;19.02;16.67;;;19.60;99.90;;;;;;4996132;28;20034;-58
2022/05/18 05:10:43;;;;;;;19.55;16.42;;;19.70;99.90;;;;;;4997159;28;20054;-59
2022/05/18 05:13:08;;;;;;;19.95;17.33;;;19.70;99.90;;;;;;4997440;28;20474;-58
2022/05/18 05:15:35;;;;;;;27.02;17.88;;;19.80;99.90;;;;;;4996502;28;20502;-58
2022/05/18 05:18:01;;;;;;;19.67;17.35;;;19.90;99.90;;;;;;4981631;28;20031;-60
2022/05/18 05:20:26;;;;;;;21.55;17.73;;;20.00;99.90;;;;;;4998893;28;20042;-60
2022/05/18 05:22:52;;;;;;;19.23;16.15;;;20.00;99.90;;;;;;4996718;28;20053;-58
2022/05/18 05:25:17;;;;;;;24.40;15.38;;;20.00;99.90;;;;;;4997224;28;20042;-60
2022/05/18 05:27:43;;;;;;;33.95;22.85;;;20.00;99.90;;;;;;4996092;28;20061;-58
2022/05/18 05:30:10;;;;;;;25.33;18.98;;;20.00;99.90;;;;;;4996143;28;20139;-57
2022/05/18 05:32:36;;;;;;;23.75;19.95;;;19.80;99.90;;;;;;4996272;28;20034;-55
2022/05/18 05:35:02;;;;;;;21.65;19.70;;;19.80;99.90;;;;;;4993341;28;20118;-59
2022/05/18 05:37:28;;;;;;;24.80;19.08;;;19.80;99.90;;;;;;4994010;28;20546;-60
2022/05/18 05:39:55;;;;;;;19.88;17.25;;;19.80;99.90;;;;;;4993535;28;20044;-60
2022/05/18 05:42:21;;;;;;;21.40;17.67;;;19.80;99.90;;;;;;4994343;28;20026;-58
2022/05/18 05:44:47;;;;;;;27.40;20.17;;;19.80;99.90;;;;;;4995642;28;20041;-59
2022/05/18 05:47:12;;;;;;;20.65;18.15;;;19.70;99.90;;;;;;4995833;28;20042;-58
2022/05/18 05:49:39;;;;;;;22.30;19.75;;;19.60;99.90;;;;;;4995319;28;20376;-58
2022/05/18 05:52:07;;;;;;;23.25;19.52;;;19.50;99.90;;;;;;4978098;28;20445;-57
2022/05/18 05:54:33;;;;;;;21.17;19.08;;;19.60;99.90;;;;;;4995619;28;20066;-60
2022/05/18 05:57:01;;;;;;;18.25;16.45;;;19.50;99.90;;;;;;4994138;28;20054;-57
2022/05/18 05:59:27;;;;;;;31.20;20.13;;;19.50;99.90;;;;;;4995772;28;20034;-57
2022/05/18 06:01:52;;;;;;;32.10;19.73;;;19.50;99.90;;;;;;4994896;28;20042;-57
2022/05/18 06:04:18;;;;;;;81.13;25.17;;;19.60;99.90;;;;;;4994217;28;20030;-60
2022/05/18 06:06:44;;;;;;;22.45;18.55;;;19.60;99.90;;;;;;4995388;28;20053;-60
2022/05/18 06:09:10;;;;;;;31.70;18.38;;;19.60;99.90;;;;;;4994876;28;20125;-59
2022/05/18 06:11:36;;;;;;;22.77;20.35;;;19.70;99.90;;;;;;4995312;28;20069;-57
2022/05/18 06:14:03;;;;;;;28.98;21.92;;;19.70;99.90;;;;;;4995433;28;20065;-56
2022/05/18 06:16:29;;;;;;;24.55;19.60;;;19.50;99.90;;;;;;4995320;28;20450;-60
2022/05/18 06:18:54;;;;;;;28.90;20.48;;;19.40;99.90;;;;;;4995119;28;20042;-59
2022/05/18 06:21:20;;;;;;;24.73;20.00;;;19.40;99.90;;;;;;4995266;28;20088;-57
2022/05/18 06:23:46;;;;;;;21.90;19.70;;;19.40;99.90;;;;;;4993518;28;20042;-58
2022/05/18 06:26:12;;;;;;;29.70;20.45;;;19.50;99.90;;;;;;4977057;28;20398;-60
2022/05/18 06:28:40;;;;;;;21.67;19.52;;;19.60;99.90;;;;;;4994752;28;20074;-58
2022/05/18 06:31:10;;;;;;;23.58;21.33;;;19.70;99.90;;;;;;4994866;28;20037;-60
2022/05/18 06:33:36;;;;;;;22.58;20.30;;;19.70;99.90;;;;;;4995207;28;20103;-57
2022/05/18 06:36:04;;;;;;;24.73;20.85;;;19.80;99.90;;;;;;4995404;28;20051;-59
2022/05/18 06:38:30;;;;;;;21.38;19.10;;;19.90;99.90;;;;;;4993312;28;20494;-57
2022/05/18 06:43:41;;;;;;;55.53;21.50;;;20.00;99.90;;;;;;4994606;28;20034;-57
2022/05/18 06:46:07;;;;;;;29.67;18.17;;;20.20;99.90;;;;;;4995765;28;20045;-61
2022/05/18 06:48:33;;;;;;;18.48;16.67;;;20.20;99.90;;;;;;4994714;28;20042;-59
2022/05/18 06:50:59;;;;;;;23.30;18.23;;;20.30;99.80;;;;;;4994154;28;20041;-58
2022/05/18 06:53:24;;;;;;;19.33;17.35;;;20.30;99.70;;;;;;4994862;28;20172;-54
2022/05/18 06:55:50;;;;;;;18.52;15.75;;;20.30;99.80;;;;;;4994587;28;20529;-59
2022/05/18 06:58:17;;;;;;;20.40;18.10;;;20.30;99.80;;;;;;4994542;28;20070;-58
2022/05/18 07:00:43;;;;;;;19.42;17.33;;;20.30;99.50;;;;;;4993812;28;20034;-57
2022/05/18 07:03:09;;;;;;;40.42;17.88;;;20.30;99.40;;;;;;4995242;28;20038;-60
2022/05/18 07:05:34;;;;;;;19.50;16.80;;;20.50;99.30;;;;;;4993720;28;20041;-58
2022/05/18 07:08:00;;;;;;;36.90;20.48;;;20.40;99.00;;;;;;4993093;28;20074;-57
2022/05/18 07:10:27;;;;;;;17.98;15.93;;;20.30;99.40;;;;;;4993395;28;20042;-60
2022/05/18 07:12:53;;;;;;;17.55;15.75;;;20.40;99.40;;;;;;4993001;28;20057;-57
2022/05/18 07:15:19;;;;;;;19.85;17.60;;;20.40;99.30;;;;;;4991392;28;20044;-58
2022/05/18 07:17:45;;;;;;;54.35;32.42;;;20.50;99.20;;;;;;4994271;28;20530;-60
2022/05/18 07:20:11;;;;;;;27.40;20.52;;;20.50;99.20;;;;;;4994329;28;20054;-60
2022/05/18 07:22:36;;;;;;;30.48;18.77;;;20.70;99.10;;;;;;4994266;28;20498;-58
2022/05/18 07:25:03;;;;;;;24.55;19.17;;;20.70;99.00;;;;;;4994216;28;20072;-61
2022/05/18 07:27:29;;;;;;;19.98;17.80;;;20.70;99.10;;;;;;4994259;28;20169;-59
2022/05/18 07:29:55;;;;;;;23.42;21.02;;;20.80;99.10;;;;;;4976753;28;20057;-59
2022/05/18 07:32:21;;;;;;;22.38;18.02;;;20.90;98.90;;;;;;4992990;28;20414;-55
2022/05/18 07:34:47;;;;;;;26.38;17.00;;;21.00;98.80;;;;;;4993869;28;20097;-60
2022/05/18 07:37:14;;;;;;;16.92;15.30;;;21.10;98.70;;;;;;4993004;28;20045;-58
2022/05/18 07:39:40;;;;;;;18.23;15.35;;;21.20;98.50;;;;;;4993373;28;20038;-56
2022/05/18 07:42:07;;;;;;;16.75;15.10;;;21.20;98.50;;;;;;4994172;28;20118;-58
2022/05/18 07:44:33;;;;;;;19.45;17.25;;;21.30;98.30;;;;;;4994528;28;20560;-57
2022/05/18 07:46:59;;;;;;;18.90;17.10;;;21.30;98.40;;;;;;4977646;28;20061;-57
2022/05/18 07:49:25;;;;;;;16.50;14.88;;;21.20;98.10;;;;;;4994345;28;20022;-61
2022/05/18 07:51:51;;;;;;;22.63;15.48;;;21.40;98.10;;;;;;4993996;28;20034;-60
2022/05/18 07:54:17;;;;;;;17.45;15.77;;;21.50;97.80;;;;;;4993061;28;20049;-60
2022/05/18 07:56:43;;;;;;;40.47;16.75;;;21.50;97.60;;;;;;4993251;28;20134;-62
2022/05/18 07:59:09;;;;;;;22.15;16.85;;;21.40;97.60;;;;;;4993435;28;20058;-61
2022/05/18 08:01:36;;;;;;;17.15;15.52;;;21.40;97.60;;;;;;4994951;28;20049;-60
2022/05/18 08:04:03;;;;;;;16.13;14.32;;;21.50;97.70;;;;;;4994026;28;20065;-57
2022/05/18 08:06:29;;;;;;;16.80;13.48;;;21.60;97.50;;;;;;4974930;28;20115;-57
2022/05/18 08:08:55;;;;;;;20.17;16.83;;;21.80;97.20;;;;;;4992768;28;20120;-56
2022/05/18 08:17:08;;;;;;;21.10;16.70;;;21.80;97.10;;;;;;4980514;28;20055;-58
2022/05/18 08:19:33;;;;;;;23.88;17.40;;;22.00;96.80;;;;;;4994941;28;20038;-59
2022/05/18 08:21:59;;;;;;;14.88;13.60;;;22.10;96.50;;;;;;4993886;28;20532;-59
2022/05/18 08:24:25;;;;;;;19.40;14.77;;;22.10;96.20;;;;;;4994567;28;20026;-58
2022/05/18 08:26:50;;;;;;;15.95;14.52;;;22.10;96.00;;;;;;4992468;28;20045;-58
2022/05/18 08:29:16;;;;;;;14.38;12.98;;;22.10;95.90;;;;;;4992979;28;20034;-57
2022/05/18 08:31:41;;;;;;;20.50;16.85;;;22.20;95.90;;;;;;4992556;28;20036;-60
2022/05/18 08:34:07;;;;;;;26.88;17.55;;;22.30;95.90;;;;;;4993016;28;20088;-59
2022/05/18 08:36:33;;;;;;;21.25;12.88;;;22.20;96.00;;;;;;4994074;28;20406;-60
2022/05/18 08:38:59;;;;;;;18.85;14.38;;;22.30;95.90;;;;;;4993579;28;20034;-59
2022/05/18 08:41:29;;;;;;;26.38;16.92;;;22.50;95.70;;;;;;4993722;28;20038;-61
2022/05/18 08:44:01;;;;;;;17.65;14.75;;;22.50;95.50;;;;;;4993465;28;20029;-58
2022/05/18 08:46:44;;;;;;;19.15;12.77;;;22.50;95.50;;;;;;4993560;28;20030;-59
2022/05/18 08:49:30;;;;;;;16.60;14.90;;;22.60;95.10;;;;;;4993860;28;20410;-62
2022/05/18 08:52:05;;;;;;;13.70;11.82;;;22.60;95.10;;;;;;4994191;28;20034;-60
2022/05/18 08:55:00;;;;;;;;;;;22.70;95.00;;;;;;4994912;28;20031;-61
2022/05/18 08:57:36;;;;;;;17.40;11.98;;;22.90;95.00;;;;;;4975428;28;20008;-60
2022/05/18 09:00:17;;;;;;;19.58;13.10;;;23.00;94.80;;;;;;4993714;28;20045;-60
2022/05/18 09:02:44;;;;;;;14.10;11.95;;;23.10;94.20;;;;;;4992240;28;20129;-59
2022/05/18 09:05:41;;;;;;;17.10;12.80;;;22.90;93.70;;;;;;4992772;28;20031;-61
2022/05/18 09:08:24;;;;;;;12.82;10.77;;;22.80;94.20;;;;;;4992375;28;20113;-60
2022/05/18 09:10:53;;;;;;;15.80;12.50;;;23.00;94.30;;;;;;4992616;28;20033;-57
2022/05/18 09:13:19;;;;;;;11.70;10.02;;;23.20;93.90;;;;;;4993158;28;20054;-58
2022/05/18 09:16:12;;;;;;;16.95;11.45;;;23.20;93.60;;;;;;4992838;28;20042;-61
2022/05/18 09:18:58;;;;;;;17.60;12.88;;;23.30;93.50;;;;;;4992557;28;20057;-59
2022/05/18 09:22:03;;;;;;;22.60;12.40;;;23.20;93.40;;;;;;4991014;28;20454;-58
2022/05/18 09:24:55;;;;;;;13.95;12.30;;;23.10;93.70;;;;;;4992376;28;20137;-60
2022/05/18 09:27:51;;;;;;;14.48;10.73;;;23.30;93.40;;;;;;4992613;28;20085;-59
2022/05/18 09:30:35;;;;;;;13.73;12.10;;;23.40;92.90;;;;;;4992235;28;20031;-56
2022/05/18 09:33:35;;;;;;;12.00;10.23;;;23.30;92.80;;;;;;4993138;28;20029;-59
2022/05/18 09:36:38;;;;;;;9.93;8.88;;;23.30;93.00;;;;;;4967537;28;20047;-60
2022/05/18 09:39:08;;;;;;;12.35;9.63;;;23.50;92.40;;;;;;4939862;28;20470;-60
2022/05/18 09:42:00;;;;;;;21.55;10.13;;;23.60;92.20;;;;;;4992927;28;20034;-59
2022/05/18 09:44:39;;;;;;;15.18;10.80;;;23.80;91.90;;;;;;4976190;28;20510;-60
2022/05/18 09:47:05;;;;;;;17.05;10.10;;;23.80;91.80;;;;;;4997178;28;20062;-60
2022/05/18 09:49:44;;;;;;;35.80;11.57;;;23.60;91.50;;;;;;4996462;28;20031;-61
2022/05/18 09:52:11;;;;;;;17.52;9.55;;;23.60;91.30;;;;;;4996376;28;20061;-59
2022/05/18 09:54:38;;;;;;;16.73;8.07;;;23.80;91.10;;;;;;4983936;28;20026;-59
2022/05/18 09:57:24;;;;;;;12.60;7.95;;;24.00;90.50;;;;;;4996012;28;20034;-59
2022/05/18 09:59:56;;;;;;;10.82;9.45;;;24.20;90.00;;;;;;4996936;28;20042;-60
2022/05/18 10:07:57;;;;;;;14.38;10.23;;;24.30;90.70;;;;;;4996082;28;20022;-59
2022/05/18 10:10:29;;;;;;;11.73;9.48;;;24.40;90.90;;;;;;4976049;28;20050;-58
2022/05/18 10:12:54;;;;;;;8.75;7.95;;;24.50;90.70;;;;;;4976770;28;20038;-61
2022/05/18 10:15:31;;;;;;;9.75;8.60;;;24.70;90.40;;;;;;4988753;28;20038;-58
2022/05/18 10:18:15;;;;;;;13.23;8.10;;;24.80;90.00;;;;;;4994973;28;20041;-59
2022/05/18 10:20:41;;;;;;;14.50;9.45;;;25.00;88.00;;;;;;4995821;28;20033;-61
2022/05/18 10:23:39;;;;;;;16.90;8.63;;;24.90;88.20;;;;;;4995805;28;20042;-61
2022/05/18 10:26:10;;;;;;;10.95;9.75;;;25.00;87.80;;;;;;4996148;28;20037;-60
2022/05/18 10:28:41;;;;;;;17.63;8.30;;;24.60;87.40;;;;;;4995734;28;20038;-58
2022/05/18 10:31:14;;;;;;;17.65;9.02;;;24.60;88.30;;;;;;4996208;28;20030;-58
2022/05/18 10:33:41;;;;;;;16.05;8.05;;;24.60;87.90;;;;;;4995581;28;20112;-59
2022/05/18 10:36:16;;;;;;;10.70;8.10;;;24.60;87.20;;;;;;4993844;28;20031;-60
2022/05/18 10:38:53;;;;;;;8.48;6.90;;;24.70;87.10;;;;;;4995645;28;20073;-59
2022/05/18 10:41:26;;;;;;;13.90;7.18;;;24.80;86.90;;;;;;4995045;28;20038;-59
2022/05/18 10:43:54;;;;;;;12.60;10.02;;;24.90;86.40;;;;;;4993621;28;20121;-58
2022/05/18 10:46:30;;;;;;;25.15;9.90;;;24.90;85.60;;;;;;4995826;28;20475;-60
2022/05/18 10:48:59;;;;;;;19.35;8.90;;;24.80;86.30;;;;;;4995214;28;20113;-57
2022/05/18 10:51:41;;;;;;;10.18;8.13;;;24.70;87.10;;;;;;4995553;28;20030;-58
2022/05/18 10:54:24;;;;;;;14.52;7.88;;;24.80;86.20;;;;;;4995056;28;20114;-60
2022/05/18 10:56:51;;;;;;;10.27;7.22;;;24.90;85.90;;;;;;4994281;28;20297;-61
2022/05/18 10:59:51;;;;;;;9.48;6.63;;;24.90;85.50;;;;;;4976017;28;20109;-59
2022/05/18 11:02:56;;;;;;;10.02;7.30;;;24.90;85.70;;;;;;4965000;28;20503;-61
2022/05/18 11:05:44;;;;;;;13.88;7.55;;;24.90;84.30;;;;;;4995112;28;20030;-60
2022/05/18 11:08:17;;;;;;;10.95;7.72;;;24.80;84.80;;;;;;4995004;28;20122;-61
2022/05/18 11:11:07;;;;;;;10.02;6.72;;;24.80;84.10;;;;;;4993740;28;20033;-59
2022/05/18 11:13:46;;;;;;;9.15;7.00;;;25.00;84.60;;;;;;4992210;28;20027;-61
2022/05/18 11:16:17;;;;;;;7.90;6.38;;;25.30;84.00;;;;;;4995399;28;20079;-60
2022/05/18 11:18:57;;;;;;;8.43;6.80;;;25.40;83.40;;;;;;4992342;28;20065;-59
2022/05/18 11:21:36;;;;;;;9.07;5.97;;;25.30;83.60;;;;;;4994464;28;20235;-61
2022/05/18 11:24:19;;;;;;;17.75;7.18;;;25.40;83.00;;;;;;4992987;28;20133;-61
2022/05/18 11:27:01;;;;;;;8.40;6.10;;;25.80;82.30;;;;;;4979899;28;20030;-59
2022/05/18 11:29:56;;;;;;;16.73;6.80;;;26.00;81.00;;;;;;4995333;28;20372;-60
2022/05/18 11:32:27;;;;;;;;;;;26.10;80.30;;;;;;4987879;28;20018;-57
2022/05/18 11:35:27;;;;;;;7.43;5.65;;;26.20;79.60;;;;;;4992454;28;19906;-60
2022/05/18 11:37:56;;;;;;;7.63;6.00;;;26.40;79.60;;;;;;4993598;28;20534;-60
2022/05/18 11:40:37;;;;;;;25.52;8.02;;;26.30;79.90;;;;;;4994009;28;20034;-58
2022/05/18 11:43:38;;;;;;;13.82;6.68;;;26.40;79.70;;;;;;4994050;28;20034;-60
2022/05/18 11:46:36;;;;;;;7.80;6.65;;;26.20;79.60;;;;;;4995260;28;20394;-58
2022/05/18 11:49:28;;;;;;;10.32;6.50;;;26.20;78.70;;;;;;4993992;28;20038;-57
2022/05/18 11:52:18;;;;;;;12.68;6.93;;;26.20;79.10;;;;;;4994810;28;20084;-58
2022/05/18 11:55:03;;;;;;;20.92;7.28;;;26.30;79.50;;;;;;4993739;28;20034;-58
2022/05/18 11:57:32;;;;;;;9.30;5.55;;;26.50;78.90;;;;;;4996145;28;20038;-61
2022/05/18 11:59:59;;;;;;;13.48;5.57;;;26.40;78.20;;;;;;4996727;28;20372;-59
2022/05/18 12:02:38;;;;;;;30.50;8.43;;;26.40;78.40;;;;;;4994592;28;20206;-60
2022/05/18 12:05:48;;;;;;;11.82;6.20;;;26.40;77.30;;;;;;4992909;28;20398;-60
2022/05/18 12:08:43;;;;;;;7.90;6.10;;;26.20;77.80;;;;;;4991781;28;20380;-59
2022/05/18 12:11:31;;;;;;;20.85;6.07;;;26.40;77.80;;;;;;4993143;28;20442;-58
2022/05/18 12:14:20;;;;;;;6.78;5.47;;;26.50;77.40;;;;;;4993672;28;20033;-59
2022/05/18 12:16:55;;;;;;;33.80;8.88;;;26.30;77.40;;;;;;4993605;28;20478;-61
2022/05/18 12:19:23;;;;;;;11.25;6.43;;;26.20;77.10;;;;;;4991777;28;20363;-60
2022/05/18 12:21:53;;;;;;;12.77;6.45;;;26.20;77.30;;;;;;4995338;28;20097;-61
2022/05/18 12:24:20;;;;;;;8.07;6.00;;;26.40;77.00;;;;;;4993102;28;20039;-57
2022/05/18 12:26:46;;;;;;;7.63;6.20;;;26.50;77.00;;;;;;4994059;28;20109;-59
2022/05/18 12:29:16;;;;;;;8.30;6.63;;;26.80;76.90;;;;;;4990668;28;20116;-60
2022/05/18 12:31:43;;;;;;;11.52;6.57;;;27.00;76.00;;;;;;4995161;28;20120;-60
2022/05/18 12:34:14;;;;;;;53.33;12.30;;;26.90;76.00;;;;;;4995344;28;20037;-61
2022/05/18 12:36:56;;;;;;;14.15;6.82;;;26.80;76.00;;;;;;4994388;28;20037;-59
2022/05/18 12:39:45;;;;;;;12.35;6.80;;;26.90;74.20;;;;;;4992059;28;20098;-60
2022/05/18 12:42:16;;;;;;;11.88;5.95;;;26.70;75.60;;;;;;4992203;28;20030;-60
2022/05/18 12:44:50;;;;;;;6.68;5.50;;;26.90;76.00;;;;;;4992993;28;20023;-59
2022/05/18 12:47:29;;;;;;;7.65;5.32;;;27.20;75.80;;;;;;4992704;28;20030;-60
2022/05/18 12:50:11;;;;;;;8.05;5.38;;;27.60;75.30;;;;;;4993809;28;20426;-61
2022/05/18 12:52:36;;;;;;;10.10;6.05;;;27.90;74.40;;;;;;4993214;28;20045;-57
2022/05/18 12:55:28;;;;;;;7.25;6.30;;;27.90;73.20;;;;;;4994412;28;20410;-61
2022/05/18 12:58:09;;;;;;;7.78;6.28;;;27.90;72.70;;;;;;4955532;28;20053;-59
2022/05/18 13:00:52;;;;;;;8.13;6.25;;;28.00;72.20;;;;;;4975233;28;20055;-61
2022/05/18 13:03:17;;;;;;;17.33;7.43;;;27.90;72.90;;;;;;4994123;28;20117;-60
2022/05/18 13:05:54;;;;;;;26.75;7.07;;;28.00;72.10;;;;;;4994804;28;20450;-58
2022/05/18 13:08:20;;;;;;;11.18;6.30;;;28.00;72.40;;;;;;4992615;28;20066;-60